Pagina principale
METAR-TAF:

METAR-TAF

Aeroporti :

Aeroporto di Firenze-Peretola

Firenze, Italia

latitudine: 43-48N, longitudine: 011-12E, altezza: 40 m

Osservazione

Il bollettino è stato emesso 17 minuti fa, alle 12:50 UTC
Vento 9 kt da nord/nord-ovest, variando fra ovest/nord-ovest e est/nord-est
Temperature 19°C
Umidità 46%
Pressione 1011 hPa
Visibilità 10 km o più
Nubi sparse ad un'altezza di 3000 ft, Cumulo congesto.

METAR: LIRQ 301250Z 34009KT 290V060 9999 SCT030TCU 19/07 Q1011

Ora: 15:07 (13:07 UTC)

Previsione

Il bollettino è stato emesso 2 ore e 7 minuti fa, alle 11:00 UTC
Previsione valida dal 30 alle 12 UTC al 31 alle 12 UTC
Vento 12 kt da nord/nord-est
Visibilità 10 km o più
Nubi sparse ad un'altezza di 2000 ft
Temporaneamente
dal 30 alle 12 UTC al 30 alle 18 UTC
Visibilità: 4000 m
rovesci di pioggia

TAF: LIRQ 301100Z 3012/3112 03012KT 9999 SCT020 TEMPO 3012/3018 4000 SHRA

Osservazioni e previsioni meteorologiche di più di 4000 aeroporti (messaggi METAR e TAF).

Le stazioni disponibili sono rappresentate dai dischi gialli e rossi sulla carta.

Puntare il mouse per vedere il nome della stazione.

Clicca sopra per visualizzare le osservazioni e previsioni meteorologiche.

Per cambiare la mappa : fare clic sui pulsanti verdi con una croce nera per ingrandire, il pulsante verde con un trattino per diminuire, o sulla freccia verde per le mappe adiacenti.


METAR-TAF: